createdAt,value
2018-08-03T00:02:14.353Z,4.30
2018-08-03T00:04:42.836Z,4.40
2018-08-03T00:07:11.497Z,3.97
2018-08-03T00:09:40.322Z,4.60
2018-08-03T00:12:09.001Z,4.00
2018-08-03T00:14:38.942Z,4.20
2018-08-03T00:17:07.652Z,3.80
2018-08-03T00:19:36.353Z,4.57
2018-08-03T00:22:05.101Z,4.63
2018-08-03T00:24:33.782Z,4.10
2018-08-03T00:27:08.611Z,4.53
2018-08-03T00:29:37.360Z,4.63
2018-08-03T00:32:06.078Z,4.17
2018-08-03T00:34:34.784Z,4.50
2018-08-03T00:37:03.525Z,4.30
2018-08-03T00:39:32.245Z,4.40
2018-08-03T00:42:00.955Z,4.03
2018-08-03T00:44:29.623Z,4.07
2018-08-03T00:46:58.365Z,4.40
2018-08-03T00:49:27.117Z,4.30
2018-08-03T00:51:55.862Z,3.67
2018-08-03T00:54:24.714Z,4.03
2018-08-03T00:56:53.485Z,4.17
2018-08-03T00:59:22.245Z,4.37
2018-08-03T01:01:50.986Z,4.47
2018-08-03T01:04:19.755Z,4.50
2018-08-03T01:06:48.509Z,4.47
2018-08-03T01:09:17.217Z,4.03
2018-08-03T01:12:06.651Z,4.40
2018-08-03T01:14:35.369Z,4.33
2018-08-03T01:17:04.062Z,4.33
2018-08-03T01:19:32.737Z,4.53
2018-08-03T01:22:01.441Z,4.13
2018-08-03T01:24:30.121Z,4.03
2018-08-03T01:26:58.850Z,4.37
2018-08-03T01:29:27.569Z,4.77
2018-08-03T01:31:56.254Z,4.47
2018-08-03T01:34:24.930Z,4.60
2018-08-03T01:36:53.602Z,4.80
2018-08-03T01:39:22.357Z,4.13
2018-08-03T01:41:51.077Z,4.33
2018-08-03T01:44:19.832Z,5.00
2018-08-03T01:46:48.621Z,4.20
2018-08-03T01:49:17.332Z,4.73
2018-08-03T01:51:46.090Z,4.63
2018-08-03T01:54:14.786Z,4.40
2018-08-03T01:56:43.517Z,4.53
2018-08-03T01:59:12.282Z,4.53
2018-08-03T02:01:40.975Z,4.80
2018-08-03T02:04:09.501Z,4.83
2018-08-03T02:06:38.139Z,4.30
2018-08-03T02:09:07.917Z,5.10
2018-08-03T02:11:36.717Z,4.10
2018-08-03T02:14:05.484Z,5.00
2018-08-03T02:16:34.167Z,4.93
2018-08-03T02:19:02.840Z,4.40
2018-08-03T02:21:31.605Z,4.90
2018-08-03T02:24:00.457Z,4.90
2018-08-03T02:26:29.150Z,4.70
2018-08-03T02:28:57.850Z,4.17
2018-08-03T02:31:26.672Z,4.87
2018-08-03T02:33:55.461Z,4.90
2018-08-03T02:36:24.359Z,5.07
2018-08-03T02:38:53.116Z,4.83
2018-08-03T02:41:21.830Z,5.10
2018-08-03T02:43:50.534Z,5.20
2018-08-03T02:46:19.234Z,4.47
2018-08-03T02:48:47.732Z,4.60
2018-08-03T02:51:16.348Z,4.90
2018-08-03T02:53:45.062Z,5.23
2018-08-03T02:56:13.782Z,4.93
2018-08-03T02:58:42.224Z,5.07
2018-08-03T03:01:10.985Z,5.60
2018-08-03T03:03:39.671Z,5.20
2018-08-03T03:06:08.389Z,5.33
2018-08-03T03:08:37.118Z,5.00
2018-08-03T03:11:06.515Z,5.23
2018-08-03T03:13:35.325Z,4.70
2018-08-03T03:16:04.015Z,5.40
2018-08-03T03:18:32.757Z,4.73
2018-08-03T03:21:01.502Z,5.57
2018-08-03T03:23:30.201Z,4.97
2018-08-03T03:25:58.885Z,5.17
2018-08-03T03:28:27.570Z,5.33
2018-08-03T03:30:56.293Z,5.60
2018-08-03T03:33:25.098Z,5.00
2018-08-03T03:35:53.813Z,6.07
2018-08-03T03:38:22.532Z,5.20
2018-08-03T03:40:51.254Z,5.77
2018-08-03T03:43:19.732Z,5.97
2018-08-03T03:45:48.343Z,5.20
2018-08-03T03:48:17.243Z,5.47
2018-08-03T03:50:45.965Z,6.07
2018-08-03T03:53:14.693Z,5.10
2018-08-03T03:58:36.773Z,5.50
2018-08-03T04:01:05.694Z,5.10
2018-08-03T04:03:34.410Z,5.33
2018-08-03T04:06:03.212Z,5.07
2018-08-03T04:08:31.917Z,5.70
2018-08-03T04:11:00.711Z,5.40
2018-08-03T04:13:29.375Z,5.70
2018-08-03T04:15:58.094Z,5.27
2018-08-03T04:18:26.833Z,5.50
2018-08-03T04:20:55.573Z,6.30
2018-08-03T04:23:24.280Z,5.80
2018-08-03T04:25:52.981Z,5.70
2018-08-03T04:28:21.689Z,5.37
2018-08-03T04:30:50.440Z,5.77
2018-08-03T04:33:19.177Z,5.20
2018-08-03T04:35:47.881Z,5.80
2018-08-03T04:38:16.612Z,5.17
2018-08-03T04:40:45.242Z,5.53
2018-08-03T04:43:13.979Z,5.00
2018-08-03T04:45:42.708Z,5.80
2018-08-03T04:48:11.368Z,5.80
2018-08-03T04:50:40.191Z,5.70
2018-08-03T04:53:09.083Z,6.07
2018-08-03T04:55:37.796Z,6.50
2018-08-03T04:58:06.522Z,5.87
2018-08-03T05:00:35.334Z,5.77
2018-08-03T05:03:04.065Z,6.03
2018-08-03T05:05:32.760Z,4.93
2018-08-03T05:08:01.575Z,5.60
2018-08-03T05:10:30.293Z,5.63
2018-08-03T05:12:59.017Z,6.60
2018-08-03T05:15:27.758Z,5.73
2018-08-03T05:17:56.205Z,5.47
2018-08-03T05:20:25.836Z,5.17
2018-08-03T05:22:54.573Z,5.63
2018-08-03T05:25:23.364Z,5.67
2018-08-03T05:27:52.067Z,5.93
2018-08-03T05:30:20.852Z,5.57
2018-08-03T05:32:49.565Z,6.20
2018-08-03T05:35:22.241Z,6.10
2018-08-03T05:37:50.979Z,6.10
2018-08-03T05:40:19.778Z,5.73
2018-08-03T05:42:48.483Z,6.50
2018-08-03T05:45:17.189Z,6.23
2018-08-03T05:48:04.229Z,6.10
2018-08-03T05:50:33.055Z,8.37
2018-08-03T05:53:01.774Z,7.20
2018-08-03T05:55:30.573Z,7.30
2018-08-03T05:57:59.347Z,6.07
2018-08-03T06:00:28.082Z,6.40
2018-08-03T06:03:08.710Z,6.03
2018-08-03T06:05:37.408Z,7.10
2018-08-03T06:08:06.204Z,5.63
2018-08-03T06:10:34.860Z,6.47
2018-08-03T06:13:03.658Z,6.47
2018-08-03T06:15:32.378Z,9.63
2018-08-03T06:18:01.107Z,9.50
2018-08-03T06:20:29.858Z,9.73
2018-08-03T06:22:58.549Z,7.13
2018-08-03T06:25:38.097Z,6.60
2018-08-03T06:28:06.809Z,6.23
2018-08-03T06:30:35.516Z,6.40
2018-08-03T06:33:04.277Z,6.33
2018-08-03T06:35:33.018Z,6.93
2018-08-03T06:38:01.881Z,6.97
2018-08-03T06:40:30.609Z,5.90
2018-08-03T06:43:06.272Z,5.90
2018-08-03T06:45:34.993Z,5.47
2018-08-03T06:48:03.710Z,6.10
2018-08-03T06:53:16.281Z,5.90
2018-08-03T06:55:45.230Z,6.10
2018-08-03T06:58:13.953Z,6.43
2018-08-03T07:00:42.677Z,6.77
2018-08-03T07:03:11.449Z,6.40
2018-08-03T07:05:40.127Z,6.47
2018-08-03T07:08:08.817Z,5.80
2018-08-03T07:10:48.322Z,6.17
2018-08-03T07:13:17.029Z,6.90
2018-08-03T07:15:45.773Z,6.17
2018-08-03T07:18:14.541Z,6.20
2018-08-03T07:20:43.365Z,6.60
2018-08-03T07:23:12.041Z,7.43
2018-08-03T07:25:40.849Z,6.17
2018-08-03T07:28:09.604Z,5.47
2018-08-03T07:30:47.484Z,5.70
2018-08-03T07:33:16.149Z,6.57
2018-08-03T07:35:48.661Z,7.20
2018-08-03T07:38:17.425Z,12.73
2018-08-03T07:40:46.153Z,7.20
2018-08-03T07:43:15.007Z,6.27
2018-08-03T07:45:43.618Z,5.27
2018-08-03T07:48:14.346Z,5.30
2018-08-03T07:50:43.127Z,5.13
2018-08-03T07:53:11.829Z,6.30
2018-08-03T07:55:40.595Z,5.63
2018-08-03T07:58:09.333Z,5.57
2018-08-03T08:00:38.053Z,5.80
2018-08-03T08:03:06.711Z,5.57
2018-08-03T08:05:35.533Z,6.40
2018-08-03T08:08:04.229Z,5.83
2018-08-03T08:10:32.938Z,6.10
2018-08-03T08:13:01.617Z,5.27
2018-08-03T08:15:31.677Z,6.10
2018-08-03T08:18:00.326Z,5.80
2018-08-03T08:20:29.018Z,5.37
2018-08-03T08:23:03.753Z,6.03
2018-08-03T08:25:32.493Z,6.07
2018-08-03T08:28:01.177Z,6.23
2018-08-03T08:30:30.410Z,6.03
2018-08-03T08:33:17.177Z,5.70
2018-08-03T08:35:45.915Z,6.20
2018-08-03T08:38:14.628Z,5.13
2018-08-03T08:40:49.965Z,6.17
2018-08-03T08:43:21.778Z,5.13
2018-08-03T08:45:59.416Z,5.53
2018-08-03T08:48:28.153Z,5.40
2018-08-03T08:50:56.958Z,5.60
2018-08-03T08:53:25.775Z,5.33
2018-08-03T08:55:54.516Z,5.80
2018-08-03T08:58:23.222Z,6.17
2018-08-03T09:00:51.988Z,5.50
2018-08-03T09:03:20.777Z,6.53
2018-08-03T09:05:49.553Z,6.43
2018-08-03T09:08:18.416Z,5.80
2018-08-03T09:10:47.130Z,5.53
2018-08-03T09:13:15.752Z,5.13
2018-08-03T09:15:44.709Z,5.40
2018-08-03T09:18:13.421Z,6.33
2018-08-03T09:20:44.101Z,6.10
2018-08-03T09:23:12.809Z,6.33
2018-08-03T09:25:41.494Z,6.17
2018-08-03T09:28:17.621Z,6.00
2018-08-03T09:30:46.193Z,6.23
2018-08-03T09:33:14.917Z,6.33
2018-08-03T09:35:43.562Z,6.20
2018-08-03T09:38:12.344Z,6.40
2018-08-03T09:40:49.994Z,5.93
2018-08-03T09:43:18.706Z,6.23
2018-08-03T09:45:47.429Z,6.10
2018-08-03T09:48:16.182Z,5.40
2018-08-03T09:50:44.918Z,5.40
2018-08-03T09:53:17.817Z,5.43
2018-08-03T09:55:46.597Z,5.40
2018-08-03T09:58:15.290Z,5.93
2018-08-03T10:00:50.662Z,6.20
2018-08-03T10:03:19.343Z,5.40
2018-08-03T10:05:48.005Z,5.27
2018-08-03T10:08:16.830Z,5.83
2018-08-03T10:10:45.488Z,5.77
2018-08-03T10:13:14.947Z,5.47
2018-08-03T10:15:43.830Z,5.60
2018-08-03T10:18:12.566Z,5.73
2018-08-03T10:20:41.349Z,5.60
2018-08-03T10:23:10.157Z,8.53
2018-08-03T10:25:38.888Z,6.07
2018-08-03T10:28:07.633Z,6.20
2018-08-03T10:30:36.421Z,5.00
2018-08-03T10:33:05.150Z,5.37
2018-08-03T10:35:33.809Z,6.90
2018-08-03T10:38:02.527Z,4.90
2018-08-03T10:40:31.293Z,4.80
2018-08-03T10:43:00.267Z,5.20
2018-08-03T10:45:29.920Z,4.77
2018-08-03T10:48:04.873Z,5.10
2018-08-03T10:50:37.554Z,5.20
2018-08-03T10:53:06.635Z,4.70
2018-08-03T10:55:35.589Z,4.63
2018-08-03T10:58:04.324Z,4.97
2018-08-03T11:00:33.187Z,4.90
2018-08-03T11:03:04.541Z,5.13
2018-08-03T11:05:33.498Z,4.27
2018-08-03T11:08:03.466Z,4.20
2018-08-03T11:10:32.195Z,4.10
2018-08-03T11:13:07.726Z,4.10
2018-08-03T11:15:36.475Z,4.63
2018-08-03T11:18:05.177Z,4.17
2018-08-03T11:20:33.903Z,3.97
2018-08-03T11:23:02.637Z,4.10
2018-08-03T11:25:35.381Z,4.43
2018-08-03T11:28:04.059Z,3.50
2018-08-03T11:30:33.046Z,3.87
2018-08-03T11:33:01.738Z,3.90
2018-08-03T11:35:30.408Z,3.57
2018-08-03T11:37:59.152Z,3.40
2018-08-03T11:40:27.833Z,3.43
2018-08-03T11:42:56.538Z,3.70
2018-08-03T11:45:25.289Z,3.83
2018-08-03T11:48:03.790Z,3.60
2018-08-03T11:50:32.489Z,3.90
2018-08-03T11:53:07.315Z,4.00
2018-08-03T11:55:45.876Z,4.03
2018-08-03T11:58:14.657Z,4.40
2018-08-03T12:01:02.747Z,3.70
2018-08-03T12:06:26.890Z,3.47
2018-08-03T12:08:55.593Z,6.17
2018-08-03T12:11:24.321Z,4.67
2018-08-03T12:13:53.138Z,3.67
2018-08-03T12:16:21.775Z,3.93
2018-08-03T12:18:50.617Z,3.97
2018-08-03T12:21:19.397Z,3.70
2018-08-03T12:23:48.107Z,3.50
2018-08-03T12:26:16.818Z,3.90
2018-08-03T12:28:45.593Z,3.60
2018-08-03T12:31:20.636Z,3.60
2018-08-03T12:33:49.211Z,4.00
2018-08-03T12:36:17.926Z,3.93
2018-08-03T12:38:53.496Z,3.77
2018-08-03T12:41:22.273Z,3.83
2018-08-03T12:43:51.037Z,3.67
2018-08-03T12:46:19.850Z,3.77
2018-08-03T12:48:48.548Z,3.57
2018-08-03T12:51:19.450Z,3.97
2018-08-03T12:53:48.153Z,3.80
2018-08-03T12:56:17.141Z,3.97
2018-08-03T12:58:45.956Z,4.03
2018-08-03T13:01:14.736Z,3.90
2018-08-03T13:03:43.557Z,3.65
2018-08-03T13:06:12.295Z,4.05
2018-08-03T13:08:41.107Z,3.50
2018-08-03T13:11:10.933Z,3.92
2018-08-03T13:13:39.805Z,4.00
2018-08-03T13:16:08.559Z,3.60
2018-08-03T13:18:37.373Z,3.58
2018-08-03T13:21:17.668Z,3.95
2018-08-03T13:23:56.320Z,3.58
2018-08-03T13:26:25.565Z,4.30
2018-08-03T13:28:55.799Z,3.90
2018-08-03T13:31:25.656Z,9.68
2018-08-03T13:33:54.787Z,4.35
2018-08-03T13:36:25.860Z,3.85
2018-08-03T13:38:54.568Z,3.33
2018-08-03T13:41:23.321Z,3.58
2018-08-03T13:43:52.053Z,3.35
2018-08-03T13:46:25.909Z,6.50
2018-08-03T13:48:54.702Z,3.77
2018-08-03T13:51:31.062Z,4.35
2018-08-03T13:53:59.860Z,6.78
2018-08-03T13:56:46.435Z,5.08
2018-08-03T13:59:15.203Z,3.92
2018-08-03T14:01:55.336Z,3.40
2018-08-03T14:04:24.091Z,3.58
2018-08-03T14:06:52.804Z,3.47
2018-08-03T14:09:21.561Z,3.58
2018-08-03T14:11:50.243Z,3.72
2018-08-03T14:14:18.958Z,3.75
2018-08-03T14:16:58.569Z,3.72
2018-08-03T14:19:27.541Z,3.77
2018-08-03T14:21:56.195Z,3.42
2018-08-03T14:24:24.981Z,3.58
2018-08-03T14:26:53.860Z,3.40
2018-08-03T14:29:22.630Z,3.83
2018-08-03T14:31:51.486Z,3.85
2018-08-03T14:34:26.409Z,3.47
2018-08-03T14:36:55.241Z,3.83
2018-08-03T14:39:24.006Z,9.93
2018-08-03T14:41:52.763Z,4.60
2018-08-03T14:44:21.509Z,3.42
2018-08-03T14:47:00.018Z,4.25
2018-08-03T14:49:28.785Z,4.22
2018-08-03T14:54:57.429Z,3.72
2018-08-03T14:57:26.229Z,4.12
2018-08-03T15:00:02.753Z,4.03
2018-08-03T15:02:31.472Z,3.95
2018-08-03T15:05:00.361Z,4.12
2018-08-03T15:07:29.230Z,3.58
2018-08-03T15:09:57.933Z,3.45
2018-08-03T15:12:26.819Z,3.80
2018-08-03T15:14:55.489Z,3.90
2018-08-03T15:17:24.213Z,3.87
2018-08-03T15:19:52.902Z,3.60
2018-08-03T15:22:25.229Z,3.72
2018-08-03T15:24:54.048Z,3.95
2018-08-03T15:27:33.914Z,4.25
2018-08-03T15:30:02.585Z,4.28
2018-08-03T15:32:32.457Z,4.40
2018-08-03T15:35:01.101Z,4.08
2018-08-03T15:37:29.810Z,3.83
2018-08-03T15:39:58.537Z,4.00
2018-08-03T15:42:27.382Z,3.85
2018-08-03T15:45:02.773Z,4.03
2018-08-03T15:47:31.459Z,3.52
2018-08-03T15:50:00.181Z,3.90
2018-08-03T15:52:28.933Z,3.83
2018-08-03T15:54:57.732Z,3.65
2018-08-03T15:57:27.533Z,4.12
2018-08-03T15:59:56.321Z,3.98
2018-08-03T16:02:25.062Z,4.40
2018-08-03T16:04:53.806Z,4.00
2018-08-03T16:07:43.671Z,4.65
2018-08-03T16:10:12.453Z,4.50
2018-08-03T16:12:41.243Z,4.40
2018-08-03T16:15:09.977Z,3.80
2018-08-03T16:17:38.685Z,4.40
2018-08-03T16:20:07.517Z,4.12
2018-08-03T16:22:36.011Z,4.00
2018-08-03T16:25:05.388Z,4.40
2018-08-03T16:27:34.161Z,4.20
2018-08-03T16:32:54.143Z,4.10
2018-08-03T16:35:23.166Z,4.45
2018-08-03T16:37:51.948Z,4.22
2018-08-03T16:40:20.769Z,4.10
2018-08-03T16:42:50.534Z,4.28
2018-08-03T16:45:19.340Z,4.40
2018-08-03T16:47:48.049Z,4.47
2018-08-03T16:50:17.936Z,4.40
2018-08-03T16:52:46.658Z,3.62
2018-08-03T16:55:15.405Z,4.20
2018-08-03T16:57:44.212Z,4.20
2018-08-03T17:00:19.317Z,4.72
2018-08-03T17:02:48.618Z,4.00
2018-08-03T17:05:17.357Z,3.95
2018-08-03T17:07:47.309Z,4.60
2018-08-03T17:10:16.096Z,4.00
2018-08-03T17:12:44.785Z,4.45
2018-08-03T17:15:13.486Z,4.33
2018-08-03T17:17:42.328Z,4.53
2018-08-03T17:20:11.039Z,3.87
2018-08-03T17:22:39.806Z,4.35
2018-08-03T17:25:08.555Z,4.00
2018-08-03T17:27:45.108Z,3.62
2018-08-03T17:30:13.877Z,4.67
2018-08-03T17:32:42.765Z,4.90
2018-08-03T17:35:11.544Z,3.77
2018-08-03T17:37:44.341Z,4.47
2018-08-03T17:40:13.166Z,4.30
2018-08-03T17:42:41.988Z,3.50
2018-08-03T17:45:10.701Z,4.15
2018-08-03T17:47:39.298Z,4.35
2018-08-03T17:50:08.133Z,4.22
2018-08-03T17:52:36.884Z,4.22
2018-08-03T17:55:07.769Z,3.98
2018-08-03T17:57:36.722Z,4.35
2018-08-03T18:00:27.600Z,4.40
2018-08-03T18:03:00.431Z,4.20
2018-08-03T18:05:29.316Z,4.28
2018-08-03T18:07:58.029Z,3.60
2018-08-03T18:10:26.777Z,3.90
2018-08-03T18:12:59.501Z,3.90
2018-08-03T18:15:28.254Z,4.15
2018-08-03T18:17:57.001Z,3.87
2018-08-03T18:20:25.809Z,4.17
2018-08-03T18:22:54.566Z,3.95
2018-08-03T18:25:23.333Z,3.80
2018-08-03T18:27:52.093Z,3.90
2018-08-03T18:30:26.982Z,4.03
2018-08-03T18:32:55.692Z,3.77
2018-08-03T18:35:24.446Z,3.75
2018-08-03T18:37:53.241Z,3.20
2018-08-03T18:40:21.985Z,3.62
2018-08-03T18:42:50.730Z,3.60
2018-08-03T18:45:19.638Z,3.22
2018-08-03T18:47:48.386Z,3.67
2018-08-03T18:50:17.084Z,3.58
2018-08-03T18:52:48.013Z,3.33
2018-08-03T18:55:16.781Z,3.67
2018-08-03T18:57:45.633Z,4.10
2018-08-03T19:00:14.421Z,3.92
2018-08-03T19:02:43.381Z,4.28
2018-08-03T19:05:12.194Z,3.90
2018-08-03T19:07:40.945Z,3.40
2018-08-03T19:10:09.753Z,3.77
2018-08-03T19:12:38.477Z,3.97
2018-08-03T19:15:08.714Z,3.67
2018-08-03T19:17:37.519Z,3.63
2018-08-03T19:20:07.056Z,3.53
2018-08-03T19:22:35.965Z,3.50
2018-08-03T19:25:10.348Z,3.73
2018-08-03T19:27:39.077Z,3.83
2018-08-03T19:30:07.885Z,3.43
2018-08-03T19:32:36.746Z,3.60
2018-08-03T19:35:05.473Z,3.93
2018-08-03T19:37:34.251Z,3.57
2018-08-03T19:40:02.949Z,3.70
2018-08-03T19:42:31.735Z,4.23
2018-08-03T19:45:00.688Z,3.83
2018-08-03T19:47:29.438Z,4.17
2018-08-03T19:49:58.214Z,4.60
2018-08-03T19:52:27.109Z,3.90
2018-08-03T19:54:56.019Z,3.50
2018-08-03T19:57:24.721Z,3.80
2018-08-03T19:59:53.395Z,3.33
2018-08-03T20:02:23.281Z,3.50
2018-08-03T20:04:52.106Z,3.40
2018-08-03T20:07:20.906Z,3.77
2018-08-03T20:09:49.582Z,4.00
2018-08-03T20:12:18.571Z,12.73
2018-08-03T20:14:48.361Z,8.97
2018-08-03T20:17:17.119Z,6.43
2018-08-03T20:19:45.978Z,4.70
2018-08-03T20:22:17.680Z,4.90
2018-08-03T20:24:46.685Z,4.10
2018-08-03T20:27:16.021Z,4.43
2018-08-03T20:29:45.165Z,4.10
2018-08-03T20:32:14.166Z,4.30
2018-08-03T20:34:42.863Z,3.57
2018-08-03T20:37:11.653Z,4.30
2018-08-03T20:39:40.452Z,4.13
2018-08-03T20:42:09.337Z,3.80
2018-08-03T20:44:38.170Z,4.40
2018-08-03T20:47:17.761Z,4.70
2018-08-03T20:49:46.497Z,4.30
2018-08-03T20:52:15.243Z,4.03
2018-08-03T20:54:43.914Z,4.30
2018-08-03T20:57:12.611Z,4.03
2018-08-03T20:59:41.301Z,4.10
2018-08-03T21:02:10.013Z,4.70
2018-08-03T21:04:38.753Z,4.33
2018-08-03T21:07:07.449Z,4.10
2018-08-03T21:09:36.204Z,4.23
2018-08-03T21:12:04.870Z,4.70
2018-08-03T21:14:33.657Z,4.40
2018-08-03T21:17:02.433Z,4.83
2018-08-03T21:19:31.113Z,4.80
2018-08-03T21:21:59.858Z,4.83
2018-08-03T21:24:28.672Z,4.20
2018-08-03T21:27:03.745Z,4.53
2018-08-03T21:29:32.525Z,4.90
2018-08-03T21:32:01.332Z,4.83
2018-08-03T21:34:30.111Z,5.40
2018-08-03T21:37:02.873Z,5.03
2018-08-03T21:39:31.628Z,4.97
2018-08-03T21:42:00.365Z,4.57
2018-08-03T21:44:29.180Z,4.03
2018-08-03T21:46:57.917Z,4.30
2018-08-03T21:49:26.878Z,4.30
2018-08-03T21:51:59.666Z,4.10
2018-08-03T21:54:28.384Z,5.10
2018-08-03T21:56:57.219Z,4.70
2018-08-03T21:59:26.002Z,4.27
2018-08-03T22:01:54.719Z,4.77
2018-08-03T22:04:23.520Z,4.30
2018-08-03T22:06:57.084Z,4.50
2018-08-03T22:09:25.805Z,4.13
2018-08-03T22:11:54.597Z,4.43
2018-08-03T22:14:23.323Z,4.13
2018-08-03T22:16:59.590Z,4.63
2018-08-03T22:19:28.533Z,4.37
2018-08-03T22:21:57.398Z,4.23
2018-08-03T22:24:26.115Z,4.07
2018-08-03T22:26:55.066Z,4.60
2018-08-03T22:29:23.767Z,5.00
2018-08-03T22:31:52.605Z,4.30
2018-08-03T22:34:27.270Z,4.43
2018-08-03T22:36:55.963Z,4.60
2018-08-03T22:39:24.870Z,4.67
2018-08-03T22:41:53.801Z,4.87
2018-08-03T22:44:22.496Z,4.73
2018-08-03T22:46:52.241Z,4.60
2018-08-03T22:49:21.186Z,4.67
2018-08-03T22:51:49.909Z,4.90
2018-08-03T22:54:18.581Z,5.10
2018-08-03T22:56:47.493Z,4.47
2018-08-03T22:59:16.237Z,4.60
2018-08-03T23:01:45.169Z,4.77
2018-08-03T23:04:13.869Z,5.33
2018-08-03T23:06:42.534Z,5.10
2018-08-03T23:09:11.281Z,5.00
2018-08-03T23:11:50.908Z,5.00
2018-08-03T23:14:19.708Z,4.73
2018-08-03T23:16:48.409Z,5.73
2018-08-03T23:19:17.105Z,5.53
2018-08-03T23:21:45.841Z,5.30
2018-08-03T23:24:23.741Z,5.23
2018-08-03T23:26:52.434Z,5.47
2018-08-03T23:29:21.239Z,5.30
2018-08-03T23:31:49.961Z,5.33
2018-08-03T23:34:18.677Z,5.37
2018-08-03T23:36:47.459Z,5.20
2018-08-03T23:39:16.153Z,5.73
2018-08-03T23:41:44.925Z,5.50
2018-08-03T23:44:13.729Z,5.47
2018-08-03T23:46:42.503Z,5.77
2018-08-03T23:49:11.421Z,5.43
2018-08-03T23:51:40.173Z,5.00
2018-08-03T23:54:08.896Z,5.83
2018-08-03T23:56:37.678Z,5.10
2018-08-03T23:59:06.381Z,5.20
